Time;durP1;ratioP1;P1;durP2;ratioP2;P2;SDS_P1;SDS_P2;PMS_P1;PMS_P2;Temp;Humidity;BMP_temperature;BMP_pressure;BME280_temperature;BME280_humidity;BME280_pressure;Samples;Min_cycle;Max_cycle;Signal;HPM_P1;HPM_P2
2023/02/06 00:00:37;;;;;;;33.35;17.83;;;2.80;99.90;;;;;;5099017;28;20410;-64
2023/02/06 00:03:04;;;;;;;36.13;18.90;;;2.80;99.90;;;;;;5100517;28;20537;-63
2023/02/06 00:05:32;;;;;;;38.45;18.38;;;2.80;99.90;;;;;;5097736;28;20410;-64
2023/02/06 00:07:59;;;;;;;30.35;17.42;;;2.80;99.90;;;;;;5097423;28;20420;-64
2023/02/06 00:10:26;;;;;;;34.28;17.40;;;2.80;99.90;;;;;;5096757;28;20445;-64
2023/02/06 00:12:54;;;;;;;34.25;18.75;;;2.80;99.90;;;;;;5096264;28;20406;-65
2023/02/06 00:15:21;;;;;;;32.28;17.10;;;2.70;99.90;;;;;;5096969;28;20426;-64
2023/02/06 00:17:47;;;;;;;34.60;17.20;;;2.70;99.90;;;;;;5095533;28;20444;-64
2023/02/06 00:20:14;;;;;;;36.80;17.75;;;2.70;99.90;;;;;;5097525;28;20411;-64
2023/02/06 00:22:43;;;;;;;32.42;16.83;;;2.70;99.90;;;;;;5093663;28;20417;-64
2023/02/06 00:25:10;;;;;;;33.40;16.60;;;2.60;99.90;;;;;;5093384;28;20751;-64
2023/02/06 00:27:37;;;;;;;29.02;16.52;;;2.60;99.90;;;;;;5096581;28;20422;-64
2023/02/06 00:30:04;;;;;;;31.58;16.58;;;2.50;99.90;;;;;;5097806;28;20410;-63
2023/02/06 00:32:31;;;;;;;33.70;16.45;;;2.50;99.90;;;;;;5097337;28;20488;-64
2023/02/06 00:34:57;;;;;;;34.03;16.77;;;2.50;99.90;;;;;;5097594;28;20406;-63
2023/02/06 00:37:24;;;;;;;34.00;17.48;;;2.50;99.90;;;;;;5099195;28;20888;-64
2023/02/06 00:39:52;;;;;;;33.40;17.67;;;2.50;99.90;;;;;;5097441;28;20912;-63
2023/02/06 00:42:19;;;;;;;35.22;19.70;;;2.50;99.90;;;;;;5097229;28;20418;-63
2023/02/06 00:44:46;;;;;;;32.97;18.02;;;2.50;99.90;;;;;;5097105;28;20406;-63
2023/02/06 00:47:13;;;;;;;34.33;17.77;;;2.50;99.90;;;;;;5097344;28;20413;-63
2023/02/06 00:49:39;;;;;;;35.35;18.58;;;2.50;99.90;;;;;;5097451;28;20854;-63
2023/02/06 00:52:06;;;;;;;32.72;18.23;;;2.40;99.90;;;;;;5096819;28;20436;-64
2023/02/06 00:54:33;;;;;;;37.90;19.63;;;2.40;99.90;;;;;;5096606;28;20420;-64
2023/02/06 00:57:01;;;;;;;36.95;19.92;;;2.50;99.90;;;;;;5096141;28;20437;-65
2023/02/06 00:59:28;;;;;;;39.60;22.65;;;2.40;99.90;;;;;;5096265;28;20420;-64
2023/02/06 01:01:54;;;;;;;38.50;21.90;;;2.40;99.90;;;;;;5096547;28;20413;-63
2023/02/06 01:04:21;;;;;;;37.53;22.42;;;2.40;99.90;;;;;;5096735;28;20406;-63
2023/02/06 01:06:48;;;;;;;42.55;22.40;;;2.40;99.90;;;;;;5096616;28;20413;-64
2023/02/06 01:09:15;;;;;;;40.50;23.27;;;2.40;99.90;;;;;;5096010;28;20414;-63
2023/02/06 01:11:41;;;;;;;38.90;23.42;;;2.40;99.90;;;;;;5096479;28;20418;-64
2023/02/06 01:14:09;;;;;;;43.75;23.70;;;2.40;99.90;;;;;;5095758;28;20406;-64
2023/02/06 01:16:36;;;;;;;43.70;25.33;;;2.40;99.90;;;;;;5096782;28;20418;-64
2023/02/06 01:19:03;;;;;;;46.05;26.50;;;2.40;99.90;;;;;;5096157;28;20414;-64
2023/02/06 01:21:30;;;;;;;45.55;25.98;;;2.40;99.90;;;;;;5096126;28;20414;-64
2023/02/06 01:23:57;;;;;;;45.78;26.05;;;2.50;99.90;;;;;;5095728;28;20410;-63
2023/02/06 01:26:26;;;;;;;50.40;25.05;;;2.50;99.90;;;;;;5095021;28;20414;-64
2023/02/06 01:28:54;;;;;;;53.40;27.75;;;2.50;99.90;;;;;;5095737;28;20409;-64
2023/02/06 01:31:24;;;;;;;47.47;26.98;;;2.50;99.90;;;;;;5095229;28;20409;-64
2023/02/06 01:33:51;;;;;;;47.30;26.25;;;2.50;99.90;;;;;;5095114;28;20751;-65
2023/02/06 01:36:20;;;;;;;44.20;26.10;;;2.50;99.90;;;;;;5095118;28;20421;-64
2023/02/06 01:38:47;;;;;;;45.80;26.98;;;2.50;99.90;;;;;;5094058;28;20766;-64
2023/02/06 01:41:15;;;;;;;47.65;25.00;;;2.50;99.90;;;;;;5095301;28;20421;-64
2023/02/06 01:43:45;;;;;;;44.33;25.48;;;2.60;99.90;;;;;;5095218;28;20418;-64
2023/02/06 01:46:12;;;;;;;43.50;25.77;;;2.60;99.90;;;;;;5094960;28;20908;-64
2023/02/06 01:48:43;;;;;;;42.63;25.17;;;2.60;99.90;;;;;;5095714;28;20435;-64
2023/02/06 01:51:16;;;;;;;43.00;24.47;;;2.60;99.90;;;;;;5095246;28;20928;-64
2023/02/06 01:53:46;;;;;;;42.75;22.65;;;2.60;99.90;;;;;;5094841;28;20410;-63
2023/02/06 01:56:18;;;;;;;39.90;23.20;;;2.60;99.90;;;;;;5094746;28;20428;-63
2023/02/06 01:58:48;;;;;;;40.85;24.38;;;2.50;99.90;;;;;;5095330;28;20406;-65
2023/02/06 02:01:16;;;;;;;37.50;23.00;;;2.50;99.90;;;;;;5095345;28;20417;-63
2023/02/06 02:03:46;;;;;;;42.42;22.70;;;2.40;99.90;;;;;;5095494;28;20409;-62
2023/02/06 02:06:16;;;;;;;49.67;22.70;;;2.30;99.90;;;;;;5095061;28;20413;-63
2023/02/06 02:08:45;;;;;;;52.67;22.00;;;2.20;99.90;;;;;;5095764;28;20421;-64
2023/02/06 02:11:16;;;;;;;50.15;21.23;;;2.20;99.90;;;;;;5095768;28;20410;-63
2023/02/06 02:13:44;;;;;;;41.63;21.75;;;2.10;99.90;;;;;;5098593;28;20769;-64
2023/02/06 02:16:18;;;;;;;43.08;21.15;;;2.00;99.90;;;;;;5099350;28;20428;-64
2023/02/06 02:19:22;;;;;;;38.93;20.47;;;2.00;99.90;;;;;;5098961;28;20410;-63
2023/02/06 02:22:24;;;;;;;33.40;18.95;;;1.90;99.90;;;;;;5099229;28;20414;-64
2023/02/06 02:25:08;;;;;;;30.50;18.90;;;1.80;99.90;;;;;;5097879;28;20413;-64
2023/02/06 02:27:51;;;;;;;35.07;20.80;;;1.70;99.90;;;;;;5095020;28;20896;-64
2023/02/06 02:30:58;;;;;;;30.67;18.10;;;1.70;99.90;;;;;;5098576;28;20398;-64
2023/02/06 02:33:49;;;;;;;30.65;18.98;;;1.70;99.90;;;;;;5095343;28;20406;-63
2023/02/06 02:36:25;;;;;;;33.97;19.10;;;1.70;99.90;;;;;;5094714;28;20422;-64
2023/02/06 02:39:03;;;;;;;35.50;20.77;;;1.70;99.90;;;;;;5095666;28;20505;-64
2023/02/06 02:41:38;;;;;;;29.63;18.40;;;1.70;99.90;;;;;;5098657;28;20418;-63
2023/02/06 02:44:08;;;;;;;30.17;19.50;;;1.70;99.90;;;;;;5097224;28;20410;-63
2023/02/06 02:46:37;;;;;;;30.52;18.90;;;1.70;99.90;;;;;;5095265;28;20402;-63
2023/02/06 02:49:07;;;;;;;30.17;19.00;;;1.70;99.90;;;;;;5093975;28;20421;-64
2023/02/06 02:51:36;;;;;;;31.33;18.27;;;1.70;99.90;;;;;;5094699;28;20881;-63
2023/02/06 02:54:03;;;;;;;31.25;18.02;;;1.70;99.90;;;;;;5095157;28;20778;-65
2023/02/06 02:56:32;;;;;;;29.55;18.65;;;1.70;99.90;;;;;;5093612;28;20433;-63
2023/02/06 02:59:03;;;;;;;30.25;18.10;;;1.70;99.90;;;;;;5094992;28;20414;-63
2023/02/06 03:01:33;;;;;;;32.17;18.75;;;1.70;99.90;;;;;;5099006;28;20886;-64
2023/02/06 03:04:04;;;;;;;29.42;18.05;;;1.70;99.90;;;;;;5107900;28;20471;-63
2023/02/06 03:07:09;;;;;;;27.63;17.53;;;1.60;99.90;;;;;;5107017;28;20470;-64
2023/02/06 03:09:46;;;;;;;32.00;18.40;;;1.60;99.90;;;;;;5101241;28;20420;-64
2023/02/06 03:12:19;;;;;;;29.67;17.77;;;1.60;99.90;;;;;;5100591;28;20433;-64
2023/02/06 03:14:52;;;;;;;29.88;17.08;;;1.60;99.90;;;;;;5101544;28;20414;-63
2023/02/06 03:17:26;;;;;;;27.45;18.15;;;1.60;99.90;;;;;;5102936;28;20422;-64
2023/02/06 03:19:56;;;;;;;30.00;17.95;;;1.50;99.90;;;;;;5098295;28;20413;-63
2023/02/06 03:22:27;;;;;;;29.67;17.95;;;1.40;99.90;;;;;;5094044;28;20416;-63
2023/02/06 03:24:56;;;;;;;30.10;17.87;;;1.30;99.90;;;;;;5094379;28;20774;-64
2023/02/06 03:27:23;;;;;;;30.70;17.83;;;1.30;99.90;;;;;;5094204;28;20416;-63
2023/02/06 03:29:51;;;;;;;30.73;17.80;;;1.20;99.90;;;;;;5094782;28;20414;-63
2023/02/06 03:32:23;;;;;;;34.88;19.30;;;1.20;99.90;;;;;;5094123;28;20406;-64
2023/02/06 03:34:56;;;;;;;34.80;19.33;;;1.20;99.90;;;;;;5094027;28;20447;-63
2023/02/06 03:37:25;;;;;;;30.75;19.23;;;1.20;99.90;;;;;;5094398;28;20422;-63
2023/02/06 03:39:52;;;;;;;37.20;20.83;;;1.20;99.90;;;;;;5096442;28;20414;-63
2023/02/06 03:42:21;;;;;;;36.63;20.25;;;1.20;99.90;;;;;;5093299;28;20417;-64
2023/02/06 03:44:54;;;;;;;34.25;20.13;;;1.30;99.90;;;;;;5093282;28;20417;-64
2023/02/06 03:47:23;;;;;;;31.25;18.90;;;1.30;99.90;;;;;;5093581;28;20418;-63
2023/02/06 03:49:52;;;;;;;32.85;19.20;;;1.30;99.90;;;;;;5093471;28;20410;-63
2023/02/06 03:52:23;;;;;;;32.50;19.70;;;1.20;99.90;;;;;;5092706;28;20413;-64
2023/02/06 03:54:55;;;;;;;33.80;19.63;;;1.20;99.90;;;;;;5092375;28;20885;-64
2023/02/06 03:57:25;;;;;;;30.27;18.80;;;1.20;99.90;;;;;;5092231;28;20422;-63
2023/02/06 03:59:52;;;;;;;35.10;20.40;;;1.20;99.90;;;;;;5093010;28;20410;-63
2023/02/06 04:02:19;;;;;;;33.95;18.80;;;1.10;99.90;;;;;;5092159;28;20414;-63
2023/02/06 04:04:46;;;;;;;32.50;18.65;;;1.00;99.90;;;;;;5102893;28;20412;-64
2023/02/06 04:07:18;;;;;;;40.40;21.03;;;1.00;99.90;;;;;;5097168;28;20402;-63
2023/02/06 04:11:09;;;;;;;37.80;20.35;;;0.90;99.90;;;;;;5090689;28;20338;-63
2023/02/06 04:13:36;;;;;;;37.45;21.30;;;0.90;99.90;;;;;;5090299;28;20415;-63
2023/02/06 04:16:03;;;;;;;39.00;21.92;;;0.90;99.90;;;;;;5090328;28;20411;-63
2023/02/06 04:18:30;;;;;;;39.20;22.85;;;0.90;99.90;;;;;;5089831;28;20774;-64
2023/02/06 04:21:03;;;;;;;41.60;20.90;;;0.90;99.90;;;;;;5089730;28;20426;-64
2023/02/06 04:23:30;;;;;;;41.47;21.70;;;0.90;99.90;;;;;;5112830;22;20431;-68
2023/02/06 04:25:57;;;;;;;41.17;21.75;;;0.80;99.90;;;;;;5089513;28;20407;-69
2023/02/06 04:28:25;;;;;;;40.55;22.08;;;0.80;99.90;;;;;;5089065;28;20909;-69
2023/02/06 04:30:52;;;;;;;38.13;22.25;;;0.80;99.90;;;;;;5089530;28;20427;-69
2023/02/06 04:33:19;;;;;;;43.13;22.42;;;0.70;99.90;;;;;;5089759;28;20429;-69
2023/02/06 04:35:47;;;;;;;40.65;22.40;;;0.70;99.90;;;;;;5089258;28;20411;-69
2023/02/06 04:38:14;;;;;;;40.17;22.20;;;0.60;99.90;;;;;;5089786;28;20406;-69
2023/02/06 04:40:40;;;;;;;41.97;22.20;;;0.60;99.90;;;;;;5089000;28;20910;-69
2023/02/06 04:43:07;;;;;;;40.65;21.65;;;0.60;99.90;;;;;;5088697;28;20913;-69
2023/02/06 04:45:35;;;;;;;35.33;19.85;;;0.60;99.90;;;;;;5088745;28;20778;-69
2023/02/06 04:48:02;;;;;;;40.55;21.13;;;0.60;99.90;;;;;;5088923;28;20442;-68
2023/02/06 04:50:30;;;;;;;41.28;21.27;;;0.60;99.90;;;;;;5089018;28;20433;-68
2023/02/06 04:52:57;;;;;;;48.75;21.60;;;0.60;99.90;;;;;;5089155;28;20423;-69
2023/02/06 04:55:24;;;;;;;38.03;20.65;;;0.60;99.90;;;;;;5088877;28;20414;-69
2023/02/06 04:57:51;;;;;;;41.65;21.77;;;0.60;99.90;;;;;;5088784;28;20411;-68
2023/02/06 05:00:18;;;;;;;39.63;20.88;;;0.60;99.90;;;;;;5088972;28;20886;-69
2023/02/06 05:02:46;;;;;;;47.53;22.92;;;0.50;99.90;;;;;;5088767;28;20415;-68
2023/02/06 05:05:13;;;;;;;39.67;19.80;;;0.50;99.90;;;;;;5088985;28;20494;-68
2023/02/06 05:07:40;;;;;;;39.10;19.23;;;0.50;99.90;;;;;;5088934;28;20411;-68
2023/02/06 05:10:08;;;;;;;41.00;19.02;;;0.50;99.90;;;;;;5089578;28;20427;-69
2023/02/06 05:12:35;;;;;;;36.53;19.65;;;0.50;99.90;;;;;;5089229;28;20407;-69
2023/02/06 05:15:02;;;;;;;41.53;18.98;;;0.40;99.90;;;;;;5089035;28;20415;-68
2023/02/06 05:17:29;;;;;;;42.25;18.90;;;0.40;99.90;;;;;;5089610;28;20430;-69
2023/02/06 05:19:58;;;;;;;48.58;20.17;;;0.50;99.90;;;;;;5088867;28;20414;-68
2023/02/06 05:22:25;;;;;;;41.92;20.58;;;0.50;99.90;;;;;;5075886;28;20803;-68
2023/02/06 05:24:51;;;;;;;46.70;20.42;;;0.50;99.90;;;;;;5075281;28;20981;-68
2023/02/06 05:27:18;;;;;;;44.80;20.38;;;0.60;99.90;;;;;;5075199;28;20408;-69
2023/02/06 05:29:45;;;;;;;38.60;19.95;;;0.60;99.90;;;;;;5075438;28;20877;-68
2023/02/06 05:32:12;;;;;;;40.30;19.85;;;0.60;99.90;;;;;;5075035;28;20771;-68
2023/02/06 05:34:39;;;;;;;41.83;18.02;;;0.60;99.90;;;;;;5074852;28;20422;-67
2023/02/06 05:37:07;;;;;;;32.88;18.40;;;0.60;99.90;;;;;;5074559;28;20850;-68
2023/02/06 05:39:34;;;;;;;34.80;17.23;;;0.60;99.90;;;;;;5075249;28;20408;-68
2023/02/06 05:42:01;;;;;;;42.03;19.80;;;0.50;99.90;;;;;;5074507;28;20915;-69
2023/02/06 05:44:28;;;;;;;40.10;19.17;;;0.50;99.90;;;;;;5074788;28;20438;-69
2023/02/06 05:46:55;;;;;;;44.03;19.73;;;0.50;99.90;;;;;;5074735;28;20514;-68
2023/02/06 05:49:21;;;;;;;42.05;18.63;;;0.50;99.90;;;;;;5074334;28;20416;-69
2023/02/06 05:51:48;;;;;;;38.95;18.27;;;0.50;99.90;;;;;;5074951;28;20412;-69
2023/02/06 05:54:17;;;;;;;39.40;18.02;;;0.50;99.90;;;;;;5074807;28;20419;-69
2023/02/06 05:56:44;;;;;;;41.83;18.42;;;0.50;99.90;;;;;;5074228;28;20420;-70
2023/02/06 05:59:11;;;;;;;42.17;18.17;;;0.50;99.90;;;;;;5074765;28;20502;-68
2023/02/06 06:01:38;;;;;;;43.42;19.83;;;0.50;99.90;;;;;;5073726;28;20447;-68
2023/02/06 06:04:05;;;;;;;36.38;19.15;;;0.50;99.90;;;;;;5064563;28;20417;-69
2023/02/06 06:06:32;;;;;;;43.40;18.30;;;0.40;99.90;;;;;;5062022;28;20455;-69
2023/02/06 06:09:00;;;;;;;43.00;19.80;;;0.40;99.90;;;;;;5071902;28;20471;-68
2023/02/06 06:11:29;;;;;;;44.97;20.23;;;0.30;99.90;;;;;;5071486;28;20466;-69
2023/02/06 06:13:55;;;;;;;41.05;20.80;;;0.30;99.90;;;;;;5070431;28;20438;-67
2023/02/06 06:16:22;;;;;;;42.22;20.35;;;0.30;99.90;;;;;;5054363;28;20777;-67
2023/02/06 06:18:49;;;;;;;45.55;20.45;;;0.30;99.90;;;;;;5070993;28;20431;-70
2023/02/06 06:21:16;;;;;;;42.65;20.27;;;0.30;99.90;;;;;;5071610;28;20420;-69
2023/02/06 06:23:43;;;;;;;46.75;20.60;;;0.30;99.90;;;;;;5067139;28;20423;-70
2023/02/06 06:26:10;;;;;;;46.00;21.70;;;0.30;99.90;;;;;;5076269;28;20411;-68
2023/02/06 06:28:38;;;;;;;44.67;20.20;;;0.30;99.90;;;;;;5076027;28;20442;-68
2023/02/06 06:31:08;;;;;;;43.83;19.53;;;0.30;99.90;;;;;;5077033;28;20428;-68
2023/02/06 06:33:35;;;;;;;44.40;19.83;;;0.30;99.90;;;;;;5074206;28;20917;-69
2023/02/06 06:36:02;;;;;;;41.20;19.47;;;0.30;99.90;;;;;;5075973;28;20523;-69
2023/02/06 06:38:28;;;;;;;42.97;20.20;;;0.40;99.90;;;;;;5074605;28;20416;-69
2023/02/06 06:40:55;;;;;;;41.13;19.52;;;0.40;99.90;;;;;;5072572;28;20431;-68
2023/02/06 06:43:22;;;;;;;41.85;19.30;;;0.40;99.90;;;;;;5066928;28;20424;-69
2023/02/06 06:45:54;;;;;;;44.73;19.70;;;0.40;99.90;;;;;;5068069;28;20492;-69
2023/02/06 06:48:21;;;;;;;42.45;19.70;;;0.40;99.90;;;;;;5076304;28;20416;-69
2023/02/06 06:50:49;;;;;;;39.07;18.17;;;0.40;99.90;;;;;;5073625;28;20530;-68
2023/02/06 06:53:15;;;;;;;41.95;20.25;;;0.50;99.90;;;;;;5072950;28;21561;-69
2023/02/06 06:55:42;;;;;;;39.67;19.20;;;0.40;99.90;;;;;;5071064;28;20434;-69
2023/02/06 06:58:09;;;;;;;39.42;18.75;;;0.50;99.90;;;;;;5071837;28;20874;-68
2023/02/06 07:00:36;;;;;;;39.90;19.05;;;0.50;99.90;;;;;;5069975;28;20911;-69
2023/02/06 07:03:04;;;;;;;41.35;19.17;;;0.50;99.90;;;;;;5070001;28;20906;-67
2023/02/06 07:05:31;;;;;;;41.80;19.65;;;0.50;99.90;;;;;;5071847;28;20428;-69
2023/02/06 07:07:58;;;;;;;40.88;18.98;;;0.60;99.90;;;;;;5070487;28;20931;-69
2023/02/06 07:10:25;;;;;;;39.78;18.15;;;0.60;99.90;;;;;;5056210;28;20519;-68
2023/02/06 07:12:53;;;;;;;37.50;18.10;;;0.60;99.90;;;;;;5073247;28;20506;-68
2023/02/06 07:15:20;;;;;;;35.40;19.60;;;0.60;99.90;;;;;;5072417;28;20435;-68
2023/02/06 07:17:47;;;;;;;35.55;18.00;;;0.70;99.90;;;;;;5072449;28;20431;-69
2023/02/06 07:20:16;;;;;;;36.05;17.75;;;0.70;99.90;;;;;;5072744;28;20512;-68
2023/02/06 07:22:42;;;;;;;36.90;16.95;;;0.70;99.90;;;;;;5073692;28;20493;-68
2023/02/06 07:25:09;;;;;;;31.85;17.67;;;0.70;99.90;;;;;;5072999;28;20438;-70
2023/02/06 07:27:36;;;;;;;37.70;18.20;;;0.70;99.90;;;;;;5073744;28;20426;-67
2023/02/06 07:30:04;;;;;;;32.63;17.80;;;0.80;99.90;;;;;;5073711;28;20431;-68
2023/02/06 07:32:31;;;;;;;37.53;19.15;;;0.80;99.90;;;;;;5070852;28;20435;-68
2023/02/06 07:34:57;;;;;;;36.50;19.33;;;0.80;99.90;;;;;;5072939;28;20555;-70
2023/02/06 07:37:25;;;;;;;41.00;20.63;;;0.90;99.90;;;;;;5071108;28;20427;-69
2023/02/06 07:39:52;;;;;;;31.38;16.83;;;1.00;99.90;;;;;;5052628;28;20418;-69
2023/02/06 07:42:19;;;;;;;34.20;17.92;;;1.00;99.90;;;;;;5068232;28;20438;-69
2023/02/06 07:44:46;;;;;;;35.93;17.80;;;1.10;99.90;;;;;;5074964;28;20482;-68
2023/02/06 07:47:12;;;;;;;35.90;19.40;;;1.10;99.90;;;;;;5071902;28;20450;-68
2023/02/06 07:49:39;;;;;;;38.05;19.70;;;1.10;99.90;;;;;;5073645;28;20749;-69
2023/02/06 07:52:06;;;;;;;37.70;18.85;;;1.20;99.90;;;;;;5073185;28;20438;-68
2023/02/06 07:54:34;;;;;;;36.17;19.17;;;1.30;99.90;;;;;;5072522;28;20422;-66
2023/02/06 07:57:01;;;;;;;37.22;17.60;;;1.30;99.90;;;;;;5072436;28;20415;-67
2023/02/06 07:59:28;;;;;;;37.75;18.05;;;1.40;99.90;;;;;;5072425;28;20778;-68
2023/02/06 08:01:55;;;;;;;35.60;18.58;;;1.40;99.90;;;;;;5072322;28;20450;-67
2023/02/06 08:04:22;;;;;;;33.88;16.75;;;1.40;99.90;;;;;;5072578;28;20426;-69
2023/02/06 08:06:48;;;;;;;32.50;16.50;;;1.30;99.90;;;;;;5072210;28;20423;-68
2023/02/06 08:09:17;;;;;;;33.08;16.60;;;1.30;99.90;;;;;;5072575;28;20415;-68
2023/02/06 08:11:45;;;;;;;30.42;16.27;;;1.30;99.90;;;;;;5071610;28;20911;-68
2023/02/06 08:14:12;;;;;;;29.08;16.27;;;1.30;99.90;;;;;;5071923;28;20417;-68
2023/02/06 08:16:39;;;;;;;32.90;16.95;;;1.30;99.90;;;;;;5072656;28;20416;-69
2023/02/06 08:19:09;;;;;;;29.40;15.07;;;1.30;99.90;;;;;;5073016;28;20412;-68
2023/02/06 08:21:36;;;;;;;31.27;16.17;;;1.30;99.90;;;;;;5071952;28;20423;-68
2023/02/06 08:24:04;;;;;;;34.30;16.80;;;1.30;99.90;;;;;;5072084;28;20914;-69
2023/02/06 08:26:31;;;;;;;27.65;16.02;;;1.40;99.90;;;;;;5072165;28;20407;-68
2023/02/06 08:29:02;;;;;;;34.95;18.08;;;1.50;99.90;;;;;;5072788;28;20426;-69
2023/02/06 08:31:31;;;;;;;31.58;15.10;;;1.50;99.90;;;;;;5072191;28;20449;-69
2023/02/06 08:33:58;;;;;;;31.27;16.30;;;1.60;99.90;;;;;;5072177;28;20775;-69
2023/02/06 08:36:26;;;;;;;31.02;15.90;;;1.70;99.90;;;;;;5071677;28;20426;-68
2023/02/06 08:38:53;;;;;;;31.40;17.00;;;1.80;99.90;;;;;;5072052;28;20418;-70
2023/02/06 08:41:23;;;;;;;29.48;15.63;;;1.90;99.90;;;;;;5072477;28;20408;-69
2023/02/06 08:43:51;;;;;;;30.60;15.90;;;1.90;99.90;;;;;;5071930;28;20420;-68
2023/02/06 08:46:21;;;;;;;28.70;16.23;;;1.90;99.90;;;;;;5073080;28;20415;-70
2023/02/06 08:48:48;;;;;;;32.22;14.77;;;2.00;99.90;;;;;;5071911;28;20399;-69
2023/02/06 08:51:15;;;;;;;28.38;15.20;;;2.10;99.90;;;;;;5072401;28;20618;-68
2023/02/06 08:53:42;;;;;;;31.95;16.75;;;2.20;99.90;;;;;;5072524;28;20408;-68
2023/02/06 08:56:10;;;;;;;28.95;15.50;;;2.20;99.90;;;;;;5073662;28;20407;-70
2023/02/06 08:58:38;;;;;;;24.65;13.23;;;2.40;99.90;;;;;;5076515;28;20411;-68
2023/02/06 09:01:09;;;;;;;28.33;14.07;;;2.50;99.90;;;;;;5076539;28;20410;-69
2023/02/06 09:03:37;;;;;;;26.40;15.23;;;2.60;99.90;;;;;;5076248;28;20519;-68
2023/02/06 09:06:05;;;;;;;28.67;16.55;;;2.70;99.90;;;;;;5075974;28;20427;-68
2023/02/06 09:08:32;;;;;;;30.83;15.32;;;2.80;99.90;;;;;;5075352;28;20964;-67
2023/02/06 09:11:05;;;;;;;26.60;15.70;;;2.90;99.90;;;;;;5075919;28;20442;-68
2023/02/06 09:13:32;;;;;;;25.63;14.10;;;2.90;99.90;;;;;;5076499;28;20414;-68
2023/02/06 09:15:59;;;;;;;26.85;13.90;;;2.80;99.90;;;;;;5076930;28;20423;-68
2023/02/06 09:18:26;;;;;;;25.27;13.80;;;2.90;99.90;;;;;;5075901;28;20502;-68
2023/02/06 09:21:03;;;;;;;32.78;14.40;;;2.90;99.90;;;;;;5076072;28;20412;-69
2023/02/06 09:23:30;;;;;;;21.83;14.13;;;2.90;99.90;;;;;;5075697;28;20418;-68
2023/02/06 09:25:57;;;;;;;26.80;14.68;;;2.90;99.90;;;;;;5075278;28;20503;-70
2023/02/06 09:28:24;;;;;;;27.85;14.95;;;3.00;99.90;;;;;;5075521;28;20404;-68
2023/02/06 09:30:50;;;;;;;25.63;14.30;;;3.10;99.90;;;;;;5075536;28;20515;-68
2023/02/06 09:33:18;;;;;;;25.20;13.68;;;3.20;99.90;;;;;;5075700;28;20415;-68
2023/02/06 09:35:44;;;;;;;28.48;14.18;;;3.40;99.90;;;;;;5075496;28;20461;-70
2023/02/06 09:38:12;;;;;;;25.90;13.95;;;3.50;99.90;;;;;;5075121;28;20418;-71
2023/02/06 09:40:39;;;;;;;23.98;13.63;;;3.70;99.90;;;;;;5075688;28;20412;-69
2023/02/06 09:43:06;;;;;;;23.98;13.07;;;3.70;99.90;;;;;;5075255;28;20418;-69
2023/02/06 09:45:33;;;;;;;28.52;13.60;;;3.70;99.90;;;;;;5075606;28;20422;-69
2023/02/06 09:48:13;;;;;;;23.65;12.98;;;3.70;99.90;;;;;;5074822;28;20907;-69
2023/02/06 09:50:49;;;;;;;26.10;12.50;;;3.80;99.90;;;;;;5074915;28;20416;-70
2023/02/06 09:53:25;;;;;;;28.85;13.18;;;3.70;99.90;;;;;;5075563;28;20416;-71
2023/02/06 09:55:55;;;;;;;22.88;13.30;;;3.70;99.90;;;;;;5074702;28;20471;-69
2023/02/06 09:58:27;;;;;;;25.23;13.10;;;3.70;99.90;;;;;;5075533;28;20422;-70
2023/02/06 10:00:59;;;;;;;28.00;13.70;;;3.80;99.90;;;;;;5075189;28;20430;-69
2023/02/06 10:03:39;;;;;;;26.17;14.80;;;3.90;99.90;;;;;;5075402;28;20415;-69
2023/02/06 10:06:14;;;;;;;28.23;14.60;;;3.90;99.90;;;;;;5078483;28;20468;-69
2023/02/06 10:08:48;;;;;;;26.20;13.57;;;3.90;99.90;;;;;;5081355;28;20422;-69
2023/02/06 10:11:19;;;;;;;22.45;13.70;;;3.90;99.90;;;;;;5076021;28;20432;-69
2023/02/06 10:13:50;;;;;;;25.20;14.33;;;3.90;99.90;;;;;;5075917;28;20768;-69
2023/02/06 10:16:31;;;;;;;23.90;13.25;;;3.90;99.90;;;;;;5075580;28;20879;-69
2023/02/06 10:19:04;;;;;;;24.65;13.93;;;4.00;99.90;;;;;;5075482;28;20427;-69
2023/02/06 10:21:35;;;;;;;32.47;14.73;;;4.00;99.90;;;;;;5075480;28;20404;-70
2023/02/06 10:24:10;;;;;;;26.08;14.32;;;4.10;99.90;;;;;;5074505;28;20910;-69
2023/02/06 10:26:41;;;;;;;28.35;15.30;;;4.10;99.90;;;;;;5075506;28;20498;-69
2023/02/06 10:29:14;;;;;;;26.60;14.00;;;4.20;99.90;;;;;;5074937;28;20412;-69
2023/02/06 10:31:54;;;;;;;29.00;14.77;;;4.30;99.90;;;;;;5075495;28;20510;-69
2023/02/06 10:34:35;;;;;;;24.73;13.60;;;4.20;99.90;;;;;;5109546;22;20518;-64
2023/02/06 10:37:18;;;;;;;29.52;14.40;;;4.10;99.90;;;;;;5141069;27;20415;-64
2023/02/06 10:40:03;;;;;;;20.98;12.25;;;4.00;99.90;;;;;;5141584;27;20438;-64
2023/02/06 10:42:43;;;;;;;24.40;13.10;;;4.00;99.90;;;;;;5143626;27;20413;-65
2023/02/06 10:45:16;;;;;;;26.38;14.70;;;3.90;99.90;;;;;;5146796;27;20403;-65
2023/02/06 10:47:48;;;;;;;32.92;15.45;;;4.00;99.90;;;;;;5142666;27;20470;-65
2023/02/06 10:50:24;;;;;;;24.73;14.27;;;4.00;99.90;;;;;;5141012;27;20410;-64
2023/02/06 10:52:53;;;;;;;26.13;13.82;;;4.00;99.90;;;;;;5141026;27;20430;-65
2023/02/06 10:55:25;;;;;;;21.95;11.90;;;4.00;99.90;;;;;;5142771;27;20413;-64
2023/02/06 10:58:02;;;;;;;24.95;12.68;;;4.10;99.90;;;;;;5141535;27;20790;-64
2023/02/06 11:00:30;;;;;;;21.33;10.43;;;4.10;99.90;;;;;;5140260;27;20417;-65
2023/02/06 11:02:59;;;;;;;20.65;11.50;;;4.20;99.90;;;;;;5139760;27;20417;-66
2023/02/06 11:05:28;;;;;;;18.73;10.77;;;4.10;99.90;;;;;;5138596;27;20407;-65
2023/02/06 11:08:07;;;;;;;16.75;10.32;;;4.10;99.90;;;;;;5137116;27;20872;-65
2023/02/06 11:10:36;;;;;;;21.52;11.40;;;4.10;99.90;;;;;;5136471;27;20403;-65
2023/02/06 11:13:06;;;;;;;20.38;10.18;;;4.20;99.90;;;;;;5136967;27;20525;-65
2023/02/06 11:15:38;;;;;;;20.92;9.77;;;4.20;99.90;;;;;;5137017;27;21091;-66
2023/02/06 11:18:07;;;;;;;15.55;9.77;;;4.30;99.90;;;;;;5137078;27;20422;-65
2023/02/06 11:20:36;;;;;;;18.95;10.50;;;4.40;99.90;;;;;;5135419;27;20422;-66
2023/02/06 11:23:16;;;;;;;19.67;10.27;;;4.40;99.90;;;;;;5135815;27;20403;-65
2023/02/06 11:25:45;;;;;;;21.42;8.93;;;4.50;99.90;;;;;;5135115;27;20467;-64
2023/02/06 11:28:14;;;;;;;17.70;9.98;;;4.60;99.90;;;;;;5134335;27;20428;-66
2023/02/06 11:30:54;;;;;;;20.65;10.00;;;4.70;99.90;;;;;;5134827;27;20410;-65
2023/02/06 11:33:25;;;;;;;22.95;9.68;;;4.70;99.90;;;;;;5134514;27;20425;-65
2023/02/06 11:35:54;;;;;;;14.27;9.30;;;4.80;99.90;;;;;;5135089;27;20770;-65
2023/02/06 11:38:23;;;;;;;18.58;10.45;;;4.80;99.90;;;;;;5135963;27;20513;-64
2023/02/06 11:41:00;;;;;;;19.38;10.00;;;4.80;99.90;;;;;;5135589;27;20489;-64
2023/02/06 11:43:30;;;;;;;19.05;9.20;;;4.80;99.90;;;;;;5134690;27;20464;-65
2023/02/06 11:46:12;;;;;;;16.23;9.50;;;4.80;99.90;;;;;;5135026;27;20422;-65
2023/02/06 11:48:41;;;;;;;15.57;9.60;;;4.80;99.90;;;;;;5134947;27;20414;-64
2023/02/06 11:51:09;;;;;;;17.02;9.43;;;4.90;99.90;;;;;;5135474;27;20410;-64
2023/02/06 11:53:37;;;;;;;18.00;10.07;;;5.10;99.90;;;;;;5134539;27;20722;-65
2023/02/06 11:56:17;;;;;;;17.23;8.70;;;5.30;99.90;;;;;;5134930;27;20413;-65
2023/02/06 11:58:44;;;;;;;18.53;9.87;;;5.40;99.90;;;;;;5134325;27;20417;-65
2023/02/06 12:01:18;;;;;;;17.15;9.30;;;5.30;99.90;;;;;;5134075;27;20406;-68
2023/02/06 12:03:54;;;;;;;18.23;10.70;;;5.20;99.90;;;;;;5134266;27;20882;-64
2023/02/06 12:06:28;;;;;;;18.65;9.82;;;5.20;99.90;;;;;;5125080;27;20774;-64
2023/02/06 12:08:56;;;;;;;17.45;8.73;;;5.30;99.90;;;;;;5134465;27;20422;-65
2023/02/06 12:11:28;;;;;;;15.75;8.18;;;5.20;99.90;;;;;;5136093;27;20449;-66
2023/02/06 12:14:00;;;;;;;15.50;8.88;;;5.10;99.90;;;;;;5133959;28;20414;-65
2023/02/06 12:16:27;;;;;;;16.70;8.73;;;5.10;99.90;;;;;;5134394;28;20406;-64
2023/02/06 12:18:57;;;;;;;15.55;8.73;;;5.00;99.90;;;;;;5134012;28;20410;-65
2023/02/06 12:21:34;;;;;;;17.20;9.63;;;5.00;99.90;;;;;;5129047;28;20428;-65
2023/02/06 12:24:05;;;;;;;17.08;9.15;;;5.00;99.90;;;;;;5134468;28;20407;-66
2023/02/06 12:26:36;;;;;;;16.60;8.60;;;5.10;99.90;;;;;;5133180;28;20414;-65
2023/02/06 12:29:08;;;;;;;17.08;9.13;;;5.10;99.90;;;;;;5134281;28;20467;-65
2023/02/06 12:31:39;;;;;;;18.20;9.07;;;5.10;99.90;;;;;;5136251;27;20463;-65
2023/02/06 12:34:14;;;;;;;17.57;8.40;;;5.10;99.90;;;;;;5135101;27;21007;-65
2023/02/06 12:36:52;;;;;;;15.80;9.00;;;5.10;99.90;;;;;;5127901;27;20894;-65
2023/02/06 12:39:20;;;;;;;18.52;8.32;;;5.10;99.90;;;;;;5138460;27;20410;-65
2023/02/06 12:42:18;;;;;;;17.58;8.50;;;5.10;99.90;;;;;;5137063;27;20423;-64
2023/02/06 12:44:51;;;;;;;19.10;8.45;;;5.10;99.90;;;;;;5126029;27;20430;-65
2023/02/06 12:47:24;;;;;;;13.98;7.80;;;5.10;99.90;;;;;;5136399;27;20423;-65
2023/02/06 12:49:57;;;;;;;12.53;7.40;;;5.20;99.90;;;;;;5130989;27;20407;-65
2023/02/06 12:52:30;;;;;;;16.65;8.60;;;5.20;99.90;;;;;;5128627;27;20437;-65